Time;durP1;ratioP1;P1;durP2;ratioP2;P2;SDS_P1;SDS_P2;PMS_P1;PMS_P2;Temp;Humidity;BMP_temperature;BMP_pressure;BME280_temperature;BME280_humidity;BME280_pressure;Samples;Min_cycle;Max_cycle;Signal;HPM_P1;HPM_P2
2022/12/25 00:01:10;;;;;;;10.45;6.57;;;;;;;10.57;57.43;101595.09;5054912;28;20404;-79
2022/12/25 00:03:36;;;;;;;12.38;6.28;;;;;;;10.58;56.78;101598.59;5053014;28;20434;-78
2022/12/25 00:06:02;;;;;;;12.05;6.88;;;;;;;10.52;57.40;101602.66;5049682;28;20737;-77
2022/12/25 00:08:27;;;;;;;11.73;6.65;;;;;;;10.70;56.81;101608.00;5051431;28;20892;-78
2022/12/25 00:11:00;;;;;;;10.70;6.70;;;;;;;10.63;56.81;101607.75;5053207;28;20376;-79
2022/12/25 00:13:26;;;;;;;10.83;6.27;;;;;;;10.59;56.97;101614.34;5052423;28;20412;-78
2022/12/25 00:15:51;;;;;;;9.90;5.83;;;;;;;10.56;56.83;101609.31;5053993;28;20380;-78
2022/12/25 00:18:17;;;;;;;8.77;6.10;;;;;;;10.54;56.90;101613.13;5054173;28;20369;-78
2022/12/25 00:20:42;;;;;;;10.03;6.07;;;;;;;10.53;56.78;101622.88;5051856;28;20446;-78
2022/12/25 00:23:08;;;;;;;11.17;6.27;;;;;;;10.58;56.54;101617.97;5052379;28;20874;-77
2022/12/25 00:25:33;;;;;;;12.53;7.17;;;;;;;10.59;56.75;101626.75;5052110;28;20450;-77
2022/12/25 00:27:58;;;;;;;9.93;6.47;;;;;;;10.46;56.76;101630.59;5052407;28;20483;-78
2022/12/25 00:30:24;;;;;;;12.07;6.55;;;;;;;10.41;57.08;101638.16;5052558;28;20440;-76
2022/12/25 00:32:49;;;;;;;11.17;6.60;;;;;;;10.47;57.26;101642.03;5052156;28;20472;-77
2022/12/25 00:35:15;;;;;;;9.43;6.27;;;;;;;10.46;57.15;101646.50;5051257;28;20434;-78
2022/12/25 00:37:40;;;;;;;10.67;7.07;;;;;;;10.52;56.76;101647.72;5052611;28;20408;-77
2022/12/25 00:40:06;;;;;;;11.23;7.23;;;;;;;10.51;56.84;101646.03;5052103;28;20373;-78
2022/12/25 00:42:32;;;;;;;11.25;7.63;;;;;;;10.47;56.98;101647.31;5052627;28;20385;-77
2022/12/25 00:45:00;;;;;;;9.60;6.47;;;;;;;10.44;57.34;101644.97;5051114;28;20388;-78
2022/12/25 00:47:25;;;;;;;10.25;6.90;;;;;;;10.44;57.09;101651.13;5051944;28;20447;-77
2022/12/25 00:49:51;;;;;;;11.93;6.75;;;;;;;10.44;56.88;101651.13;5051820;28;20440;-77
2022/12/25 00:52:16;;;;;;;9.40;6.53;;;;;;;10.46;57.06;101645.66;5051634;28;20396;-77
2022/12/25 00:54:42;;;;;;;10.47;6.57;;;;;;;10.42;57.08;101649.56;5051885;28;20377;-77
2022/12/25 00:57:07;;;;;;;9.80;6.73;;;;;;;10.37;57.15;101647.38;5052423;28;20381;-77
2022/12/25 00:59:33;;;;;;;10.17;6.80;;;;;;;10.37;57.02;101649.19;5051184;28;20376;-78
2022/12/25 01:04:43;;;;;;;12.17;7.43;;;;;;;10.32;57.28;101645.16;5051734;28;20474;-78
2022/12/25 01:07:09;;;;;;;12.33;7.30;;;;;;;10.30;57.10;101649.75;5052390;28;20861;-76
2022/12/25 01:12:18;;;;;;;10.65;6.45;;;;;;;10.30;57.12;101656.84;5051794;28;20384;-78
2022/12/25 01:14:43;;;;;;;12.38;5.93;;;;;;;10.22;57.55;101651.44;5051701;28;20372;-77
2022/12/25 01:17:09;;;;;;;10.57;6.50;;;;;;;10.22;57.60;101657.56;5050637;28;20400;-77
2022/12/25 01:19:34;;;;;;;9.60;6.40;;;;;;;10.23;57.21;101658.41;5051412;28;21023;-77
2022/12/25 01:22:00;;;;;;;9.57;6.17;;;;;;;10.24;57.59;101662.72;5053364;28;20384;-77
2022/12/25 01:24:25;;;;;;;11.23;6.17;;;;;;;10.21;57.82;101661.22;5055517;28;20380;-78
2022/12/25 01:26:52;;;;;;;8.15;5.75;;;;;;;10.16;57.52;101660.81;5055946;28;20548;-78
2022/12/25 01:29:18;;;;;;;7.68;5.50;;;;;;;10.17;57.94;101643.09;5055942;28;20454;-78
2022/12/25 01:31:43;;;;;;;9.23;5.77;;;;;;;10.23;57.63;101645.16;5055790;28;20473;-78
2022/12/25 01:34:08;;;;;;;9.67;5.97;;;;;;;10.21;57.53;101645.31;5054466;28;20380;-78
2022/12/25 01:36:34;;;;;;;10.18;6.22;;;;;;;10.17;57.50;101643.91;5055967;28;20793;-77
2022/12/25 01:38:59;;;;;;;14.10;6.93;;;;;;;10.22;57.63;101644.31;5056181;28;20392;-77
2022/12/25 01:41:25;;;;;;;15.23;8.23;;;;;;;10.17;57.50;101651.03;5055607;28;20380;-78
2022/12/25 01:43:56;;;;;;;14.63;7.90;;;;;;;10.20;57.51;101650.75;5056661;28;20451;-77
2022/12/25 01:46:22;;;;;;;14.40;7.47;;;;;;;10.20;57.69;101651.56;5056176;28;20741;-77
2022/12/25 01:48:48;;;;;;;12.83;7.57;;;;;;;10.24;57.59;101642.34;5056258;28;20416;-78
2022/12/25 01:51:35;;;;;;;14.05;7.40;;;;;;;10.28;57.09;101637.59;5055558;28;20714;-78
2022/12/25 01:54:05;;;;;;;11.80;6.10;;;;;;;10.35;56.98;101635.25;5056883;28;20380;-78
2022/12/25 01:56:34;;;;;;;12.77;7.43;;;;;;;10.35;57.08;101627.28;5056870;28;20473;-78
2022/12/25 01:59:02;;;;;;;15.88;8.10;;;;;;;10.37;56.67;101634.13;5056071;28;20530;-78
2022/12/25 02:01:27;;;;;;;14.07;8.27;;;;;;;10.47;56.81;101639.38;5056098;28;20420;-78
2022/12/25 02:04:01;;;;;;;10.02;5.45;;;;;;;10.49;56.29;101640.88;5055275;28;20415;-77
2022/12/25 02:06:29;;;;;;;18.25;8.77;;;;;;;10.58;56.48;101641.00;5056526;28;20500;-78
2022/12/25 02:08:55;;;;;;;10.20;6.45;;;;;;;10.68;56.33;101645.28;5056455;28;20473;-78
2022/12/25 02:14:05;;;;;;;11.77;6.60;;;;;;;10.74;55.66;101643.84;5055639;28;20388;-78
2022/12/25 02:16:34;;;;;;;14.47;8.27;;;;;;;10.65;55.72;101653.50;5056660;28;20388;-79
2022/12/25 02:19:10;;;;;;;13.43;7.28;;;;;;;10.66;55.34;101649.03;5055790;28;20377;-78
2022/12/25 02:22:11;;;;;;;11.57;7.00;;;;;;;10.56;55.80;101661.53;5055643;28;20533;-78
2022/12/25 02:24:40;;;;;;;11.20;6.00;;;;;;;10.63;55.69;101665.25;5055262;28;20403;-78
2022/12/25 02:27:31;;;;;;;10.90;6.80;;;;;;;10.65;55.68;101653.50;5055520;28;20377;-79
2022/12/25 02:30:06;;;;;;;11.30;6.65;;;;;;;10.59;55.54;101646.16;5056380;28;20474;-78
2022/12/25 02:32:43;;;;;;;12.63;6.63;;;;;;;10.48;55.76;101662.25;5054713;28;20384;-79
2022/12/25 02:35:21;;;;;;;13.02;7.03;;;;;;;10.35;55.90;101645.84;5055642;28;20392;-79
2022/12/25 02:37:56;;;;;;;11.00;6.30;;;;;;;10.36;56.35;101650.16;5055870;28;20380;-79
2022/12/25 02:40:39;;;;;;;11.30;6.90;;;;;;;10.33;56.30;101645.97;5055127;28;20880;-79
2022/12/25 03:08:40;;;;;;;9.90;6.28;;;;;;;10.36;56.43;101650.16;5054641;28;20391;-78
2022/12/25 03:16:49;;;;;;;13.65;12.23;;;;;;;10.13;57.05;101655.78;5055387;28;20787;-79
2022/12/25 03:27:34;;;;;;;9.60;5.27;;;;;;;9.86;58.52;101681.19;5053789;28;20383;-78
2022/12/25 03:33:07;;;;;;;9.82;6.40;;;;;;;9.98;58.10;101681.91;5053719;28;20427;-78
2022/12/25 03:36:02;;;;;;;10.48;7.35;;;;;;;10.07;57.99;101682.84;5053870;28;20383;-78
2022/12/25 04:36:07;;;;;;;12.38;8.35;;;;;;;9.92;58.69;101675.34;5053985;28;20807;-78
2022/12/25 04:36:52;;;;;;;8.50;5.38;;;;;;;9.59;59.33;101695.16;5054075;28;20399;-78
2022/12/25 04:39:18;;;;;;;8.73;5.27;;;;;;;9.59;59.55;101697.81;5035589;28;20389;-78
2022/12/25 04:41:43;;;;;;;8.27;5.50;;;;;;;9.65;59.16;101702.56;5053323;28;20388;-79
2022/12/25 04:44:09;;;;;;;9.43;5.70;;;;;;;9.76;58.92;101698.94;5053438;28;20389;-78
2022/12/25 04:46:34;;;;;;;8.87;5.77;;;;;;;9.66;59.28;101711.31;5052345;28;20848;-78
2022/12/25 04:49:00;;;;;;;9.98;5.57;;;;;;;9.66;59.36;101700.75;5052591;28;20904;-78
2022/12/25 04:51:25;;;;;;;8.37;5.20;;;;;;;9.56;59.30;101704.22;5053474;28;20432;-77
2022/12/25 04:53:52;;;;;;;8.23;5.17;;;;;;;9.55;59.76;101710.47;5053686;28;20385;-78
2022/12/25 04:56:18;;;;;;;8.65;6.00;;;;;;;9.72;59.33;101708.97;5052833;28;20397;-78
2022/12/25 04:58:44;;;;;;;11.15;7.90;;;;;;;9.79;58.83;101716.34;5052644;28;20857;-78
2022/12/25 05:01:10;;;;;;;8.45;4.75;;;;;;;9.66;58.98;101716.63;5046245;28;20401;-78
2022/12/25 05:03:35;;;;;;;8.68;5.60;;;;;;;9.52;59.49;101726.63;5053591;28;20385;-78
2022/12/25 05:06:02;;;;;;;7.20;5.20;;;;;;;9.44;59.62;101726.50;5053334;28;20497;-79
2022/12/25 05:08:29;;;;;;;14.50;6.50;;;;;;;9.62;59.38;101724.00;5052694;28;20474;-78
2022/12/25 05:10:55;;;;;;;8.18;5.28;;;;;;;9.74;59.23;101725.53;5050534;28;20463;-78
2022/12/25 05:13:20;;;;;;;10.93;8.50;;;;;;;9.87;58.48;101735.84;5052485;28;20857;-78
2022/12/25 05:15:46;;;;;;;8.90;6.63;;;;;;;9.94;58.31;101725.53;5052149;28;20475;-78
2022/12/25 05:18:11;;;;;;;8.27;5.27;;;;;;;9.85;58.39;101737.81;5052438;28;20400;-78
2022/12/25 05:20:37;;;;;;;9.30;5.10;;;;;;;9.81;58.68;101751.47;5050991;28;20907;-79
2022/12/25 05:23:02;;;;;;;8.90;5.80;;;;;;;9.88;58.27;101749.91;5052803;28;20769;-78
2022/12/25 05:25:28;;;;;;;7.97;5.20;;;;;;;9.86;58.72;101746.59;5052828;28;20398;-78
2022/12/25 05:27:54;;;;;;;9.88;6.40;;;;;;;9.94;58.26;101736.97;5053151;28;20384;-79
2022/12/25 05:30:19;;;;;;;9.98;5.80;;;;;;;10.00;57.88;101742.69;5053027;28;20412;-78
2022/12/25 05:32:46;;;;;;;9.47;5.53;;;;;;;10.03;58.00;101748.53;5053103;28;20760;-79
2022/12/25 05:35:12;;;;;;;10.32;6.20;;;;;;;9.90;58.22;101751.47;5053038;28;20392;-78
2022/12/25 05:37:37;;;;;;;12.30;6.50;;;;;;;9.89;57.96;101754.25;5053341;28;20388;-77
2022/12/25 05:40:04;;;;;;;11.47;6.07;;;;;;;9.87;58.55;101762.34;5053042;28;20387;-78
2022/12/25 05:42:29;;;;;;;9.57;6.13;;;;;;;9.88;58.26;101773.75;5052831;28;20479;-78
2022/12/25 05:44:55;;;;;;;8.80;5.80;;;;;;;9.88;58.21;101784.34;5052451;28;20816;-78
2022/12/25 05:47:20;;;;;;;11.53;6.73;;;;;;;9.80;58.46;101789.53;5051790;28;20512;-78
2022/12/25 05:49:46;;;;;;;9.05;5.80;;;;;;;9.95;57.84;101774.88;5051554;28;20404;-78
2022/12/25 05:52:11;;;;;;;8.40;5.20;;;;;;;10.02;58.14;101781.28;5052776;28;20733;-78
2022/12/25 05:54:37;;;;;;;7.20;4.83;;;;;;;9.95;58.18;101786.28;5053687;28;20393;-78
2022/12/25 05:57:03;;;;;;;9.13;4.88;;;;;;;9.89;58.09;101800.09;5053728;28;20393;-78
2022/12/25 05:59:32;;;;;;;11.55;6.85;;;;;;;9.87;57.98;101804.72;5053166;28;20384;-78
2022/12/25 06:01:58;;;;;;;8.70;5.47;;;;;;;9.84;58.24;101815.56;5052728;28;20468;-78
2022/12/25 06:04:25;;;;;;;8.55;5.40;;;;;;;9.81;57.95;101810.53;5051174;28;20856;-78
2022/12/25 06:06:51;;;;;;;11.38;7.53;;;;;;;9.91;58.12;101813.22;5051701;28;20718;-78
2022/12/25 06:09:16;;;;;;;9.55;6.05;;;;;;;9.98;58.26;101806.38;5055887;28;20550;-78
2022/12/25 06:11:42;;;;;;;10.33;6.00;;;;;;;10.03;58.08;101816.56;5057185;28;20437;-78
2022/12/25 06:14:11;;;;;;;11.47;7.53;;;;;;;10.02;57.86;101831.63;5054879;28;20384;-78
2022/12/25 06:16:37;;;;;;;10.45;7.22;;;;;;;10.03;58.14;101829.78;5056566;28;20715;-79
2022/12/25 06:19:02;;;;;;;10.33;7.30;;;;;;;10.03;57.98;101840.38;5055976;28;20417;-79
2022/12/25 06:21:28;;;;;;;14.52;10.07;;;;;;;10.03;58.10;101841.25;5054483;28;20483;-78
2022/12/25 06:23:53;;;;;;;17.97;12.20;;;;;;;9.97;57.95;101833.00;5054326;28;20846;-77
2022/12/25 06:26:19;;;;;;;13.20;9.03;;;;;;;9.99;58.21;101855.72;5055743;28;20534;-78
2022/12/25 06:28:45;;;;;;;14.88;8.98;;;;;;;10.00;58.18;101861.88;5053072;28;20377;-78
2022/12/25 06:31:20;;;;;;;11.88;8.60;;;;;;;10.02;57.70;101865.22;5053351;28;20411;-78
2022/12/25 06:33:45;;;;;;;11.88;8.07;;;;;;;10.06;58.29;101872.75;5051761;28;20393;-78
2022/12/25 06:36:14;;;;;;;12.05;8.50;;;;;;;10.19;57.56;101869.00;5051255;28;20391;-78
2022/12/25 06:38:40;;;;;;;13.25;9.15;;;;;;;10.19;57.61;101869.00;5053134;28;20454;-79
2022/12/25 06:41:09;;;;;;;11.80;9.00;;;;;;;10.17;57.87;101876.25;5052800;28;20393;-78
2022/12/25 06:43:35;;;;;;;13.23;9.70;;;;;;;10.10;57.97;101865.34;5046361;28;20778;-80
2022/12/25 06:46:08;;;;;;;12.30;9.23;;;;;;;10.18;57.99;101873.47;5054185;28;20423;-79
2022/12/25 06:48:35;;;;;;;12.63;9.27;;;;;;;10.22;57.52;101874.84;5052291;28;20520;-79
2022/12/25 06:51:01;;;;;;;13.38;10.10;;;;;;;10.29;58.00;101878.63;5053770;28;20920;-78
2022/12/25 06:53:27;;;;;;;10.07;7.03;;;;;;;10.14;58.29;101880.84;5052585;28;20393;-78
2022/12/25 06:55:53;;;;;;;11.05;8.20;;;;;;;10.23;58.21;101884.50;5053638;28;20391;-78
2022/12/25 06:58:18;;;;;;;21.30;16.20;;;;;;;10.31;58.03;101889.94;5052581;28;20381;-78
2022/12/25 07:00:44;;;;;;;14.23;10.33;;;;;;;10.37;57.68;101882.41;5052477;28;20416;-77
2022/12/25 07:03:15;;;;;;;19.97;14.40;;;;;;;10.47;57.80;101885.91;5052707;28;20389;-78
2022/12/25 07:05:40;;;;;;;30.67;22.67;;;;;;;10.51;57.61;101890.81;5037572;28;20941;-78
2022/12/25 07:08:06;;;;;;;17.73;12.80;;;;;;;10.51;57.62;101890.81;5041359;28;20396;-78
2022/12/25 07:10:31;;;;;;;12.17;9.83;;;;;;;10.56;57.47;101894.84;5037370;28;20409;-78
2022/12/25 07:12:57;;;;;;;22.20;15.63;;;;;;;10.51;57.43;101890.81;5048574;28;20415;-78
2022/12/25 07:15:23;;;;;;;20.00;12.88;;;;;;;10.55;57.61;101893.97;5052842;28;20465;-79
2022/12/25 07:17:49;;;;;;;20.90;13.65;;;;;;;10.60;57.42;101894.41;5050927;28;20487;-78
2022/12/25 07:20:14;;;;;;;19.87;12.33;;;;;;;10.65;57.38;101902.78;5051227;28;20523;-78
2022/12/25 07:22:40;;;;;;;22.90;14.43;;;;;;;10.52;57.57;101892.47;5052471;28;20722;-79
2022/12/25 07:25:05;;;;;;;17.37;11.67;;;;;;;10.62;57.85;101902.22;5052017;28;20395;-77
2022/12/25 07:27:31;;;;;;;22.00;14.40;;;;;;;10.64;57.66;101897.59;5035618;28;20438;-79
2022/12/25 07:29:56;;;;;;;13.32;9.05;;;;;;;10.71;57.46;101890.75;5053277;28;20761;-79
2022/12/25 07:32:22;;;;;;;17.50;11.60;;;;;;;10.85;57.44;101903.56;5052642;28;20392;-79
2022/12/25 07:34:47;;;;;;;19.67;12.70;;;;;;;10.86;57.60;101904.44;5052450;28;20400;-79
2022/12/25 07:37:13;;;;;;;10.63;6.30;;;;;;;10.88;57.40;101907.78;5051901;28;20424;-78
2022/12/25 07:39:39;;;;;;;14.40;9.03;;;;;;;11.07;57.00;101906.88;5051731;28;20931;-78
2022/12/25 07:42:05;;;;;;;9.88;7.00;;;;;;;11.11;56.74;101921.56;5052532;28;20397;-79
2022/12/25 07:44:30;;;;;;;12.23;8.57;;;;;;;11.20;56.49;101915.38;5052652;28;20442;-78
2022/12/25 07:46:56;;;;;;;11.40;7.57;;;;;;;11.28;56.38;101925.28;5051683;28;20396;-78
2022/12/25 07:49:21;;;;;;;16.27;10.55;;;;;;;11.33;56.25;101933.63;5052855;28;20405;-78
2022/12/25 07:51:47;;;;;;;21.83;15.10;;;;;;;11.41;56.31;101927.59;5051669;28;20880;-80
2022/12/25 07:54:12;;;;;;;14.65;9.55;;;;;;;11.50;56.08;101931.19;5051605;28;20865;-80
2022/12/25 07:56:38;;;;;;;17.07;10.90;;;;;;;11.65;56.02;101935.06;5050615;28;20489;-80
2022/12/25 07:59:03;;;;;;;55.77;36.03;;;;;;;11.73;55.89;101942.28;5049362;28;20438;-79
2022/12/25 08:01:29;;;;;;;21.45;13.85;;;;;;;11.88;55.44;101950.59;5049595;28;20392;-78
2022/12/25 08:03:59;;;;;;;35.23;22.80;;;;;;;11.91;55.45;101950.34;5050693;28;20429;-78
2022/12/25 08:06:28;;;;;;;15.88;10.07;;;;;;;11.91;55.33;101945.03;5045031;28;20389;-80
2022/12/25 08:08:55;;;;;;;13.55;9.38;;;;;;;11.96;55.13;101932.97;5049963;28;20401;-80
2022/12/25 08:11:21;;;;;;;9.07;5.82;;;;;;;11.95;54.72;101941.06;5051056;28;20403;-77
2022/12/25 08:13:47;;;;;;;9.60;6.17;;;;;;;11.97;54.52;101939.94;5051079;28;20850;-79
2022/12/25 08:16:12;;;;;;;9.30;6.43;;;;;;;12.09;54.58;101935.25;5049826;28;20498;-78
2022/12/25 08:18:38;;;;;;;9.85;6.82;;;;;;;12.28;54.32;101950.25;5052884;28;20399;-81
2022/12/25 08:21:06;;;;;;;7.90;5.20;;;;;;;12.26;54.01;101949.53;5052124;28;20872;-79
2022/12/25 08:23:37;;;;;;;9.18;6.00;;;;;;;12.22;54.05;101953.50;5051394;28;20416;-79
2022/12/25 08:26:04;;;;;;;7.18;4.82;;;;;;;12.28;54.23;101952.91;5051640;28;20472;-78
2022/12/25 08:28:30;;;;;;;9.43;4.95;;;;;;;12.27;53.90;101956.53;5051648;28;20476;-78
2022/12/25 08:30:55;;;;;;;9.27;5.40;;;;;;;12.45;53.74;101955.72;5050206;28;20496;-78
2022/12/25 08:33:21;;;;;;;8.23;5.70;;;;;;;12.57;53.50;101946.53;5052497;28;20390;-79
2022/12/25 08:35:46;;;;;;;8.53;5.60;;;;;;;12.60;53.21;101955.03;5052722;28;20373;-78
2022/12/25 08:38:12;;;;;;;11.23;6.43;;;;;;;12.60;53.53;101947.06;5052596;28;20476;-79
2022/12/25 08:40:38;;;;;;;11.70;5.60;;;;;;;12.78;53.33;101952.38;5051585;28;20381;-80
2022/12/25 08:43:03;;;;;;;10.97;6.07;;;;;;;12.76;53.00;101948.16;5052391;28;20420;-79
2022/12/25 08:45:29;;;;;;;12.20;6.40;;;;;;;12.88;52.55;101951.44;5050475;28;20552;-77
2022/12/25 08:47:55;;;;;;;10.23;6.07;;;;;;;12.95;52.81;101953.31;5051280;28;20431;-77
2022/12/25 08:50:23;;;;;;;8.43;5.10;;;;;;;13.06;52.31;101956.72;5049070;28;21280;-78
2022/12/25 08:52:49;;;;;;;8.20;4.25;;;;;;;12.96;51.72;101951.47;5050104;28;20400;-79
2022/12/25 08:55:14;;;;;;;14.13;8.80;;;;;;;12.93;52.38;101957.97;5047804;28;20389;-78
2022/12/25 08:57:40;;;;;;;7.23;4.60;;;;;;;13.02;52.03;101964.19;5048842;28;20811;-78
2022/12/25 09:00:07;;;;;;;16.92;10.57;;;;;;;13.01;51.68;101960.66;5050161;28;20377;-80
2022/12/25 09:02:33;;;;;;;9.23;6.05;;;;;;;13.08;51.74;101965.38;5053616;28;20488;-79
2022/12/25 09:04:58;;;;;;;5.45;3.95;;;;;;;13.07;51.93;101977.88;5056192;28;20802;-81
2022/12/25 09:07:24;;;;;;;8.63;4.03;;;;;;;12.89;51.65;101966.41;5052065;28;20861;-80
2022/12/25 09:09:49;;;;;;;8.68;5.20;;;;;;;13.15;51.65;101966.44;5050496;28;20401;-78
2022/12/25 09:12:14;;;;;;;6.60;4.67;;;;;;;13.35;50.96;101973.25;5050933;28;20904;-79
2022/12/25 09:14:40;;;;;;;7.40;4.75;;;;;;;13.14;50.99;101970.06;5050109;28;20450;-79
2022/12/25 09:17:06;;;;;;;7.33;4.03;;;;;;;13.04;50.87;101958.72;5050997;28;20385;-79
2022/12/25 09:19:31;;;;;;;6.20;3.83;;;;;;;12.96;51.08;101964.78;5049720;28;20503;-79
2022/12/25 09:21:57;;;;;;;6.93;4.60;;;;;;;13.15;50.92;101955.78;5051059;28;20457;-79
2022/12/25 09:24:22;;;;;;;7.30;3.80;;;;;;;13.03;50.97;101967.69;5050893;28;20744;-79
2022/12/25 09:26:48;;;;;;;6.47;3.53;;;;;;;13.13;50.61;101976.41;5051516;28;20381;-79
2022/12/25 09:29:15;;;;;;;6.03;3.73;;;;;;;13.16;50.50;101976.06;5049923;28;20401;-78
2022/12/25 09:31:41;;;;;;;7.97;5.13;;;;;;;13.54;50.43;101968.66;5051039;28;20381;-82
2022/12/25 09:34:08;;;;;;;8.27;5.80;;;;;;;13.52;50.63;101971.53;5051519;28;20400;-79
2022/12/25 09:36:33;;;;;;;5.75;4.10;;;;;;;13.50;50.69;101968.16;5051107;28;20381;-78
2022/12/25 09:38:59;;;;;;;8.37;5.53;;;;;;;13.53;50.15;101953.69;5053385;28;20376;-78
2022/12/25 09:41:33;;;;;;;11.10;5.35;;;;;;;13.61;50.08;101968.88;5056121;28;20387;-79
2022/12/25 09:44:15;;;;;;;9.80;5.85;;;;;;;13.82;50.14;101963.16;5055691;28;20380;-77
2022/12/25 09:46:45;;;;;;;7.95;4.97;;;;;;;14.06;50.41;101962.38;5054135;28;20530;-78
2022/12/25 09:49:22;;;;;;;7.95;4.40;;;;;;;14.09;49.73;101954.91;5055247;28;20408;-77
2022/12/25 09:51:57;;;;;;;9.93;6.03;;;;;;;14.13;49.52;101945.59;5052732;28;20384;-80
2022/12/25 09:54:41;;;;;;;11.38;6.22;;;;;;;13.88;49.20;101944.69;5054660;28;20444;-79
2022/12/25 09:57:12;;;;;;;9.00;5.60;;;;;;;14.04;49.54;101949.22;5056896;28;20422;-79
2022/12/25 09:59:38;;;;;;;8.52;5.18;;;;;;;14.02;49.22;101945.88;5054527;28;20814;-78
2022/12/25 10:02:25;;;;;;;8.68;5.35;;;;;;;14.11;49.12;101949.41;5053355;28;20388;-77
2022/12/25 10:05:16;;;;;;;9.88;6.45;;;;;;;14.15;48.92;101946.28;5053082;28;20389;-78
2022/12/25 10:08:19;;;;;;;9.85;5.60;;;;;;;14.31;48.61;101936.63;5053525;28;20795;-77
2022/12/25 10:11:10;;;;;;;6.72;4.20;;;;;;;14.26;48.35;101929.13;5053892;28;20418;-78
2022/12/25 10:14:00;;;;;;;8.70;6.60;;;;;;;14.40;48.82;101937.47;5052342;28;20388;-79
2022/12/25 10:16:49;;;;;;;11.00;6.82;;;;;;;14.41;48.48;101936.47;5055133;28;20473;-78
2022/12/25 10:19:15;;;;;;;8.32;5.40;;;;;;;14.49;48.73;101934.63;5033567;28;20708;-77
2022/12/25 10:21:41;;;;;;;9.73;4.97;;;;;;;14.65;47.96;101936.50;5046726;28;20395;-78
2022/12/25 10:24:28;;;;;;;7.30;3.60;;;;;;;14.63;47.08;101941.16;5053028;28;20390;-78
2022/12/25 10:26:55;;;;;;;5.90;3.30;;;;;;;14.72;46.79;101934.00;5053714;28;20361;-78
2022/12/25 10:29:20;;;;;;;6.88;4.25;;;;;;;14.65;46.71;101941.84;5053356;28;20436;-78
2022/12/25 10:31:48;;;;;;;8.33;4.77;;;;;;;14.76;46.69;101945.19;5053346;28;20423;-77
2022/12/25 10:34:15;;;;;;;5.32;3.38;;;;;;;14.73;46.61;101949.03;5049312;28;20472;-78
2022/12/25 10:36:43;;;;;;;5.65;2.72;;;;;;;14.34;46.63;101941.63;5053755;28;20467;-78
2022/12/25 10:39:21;;;;;;;4.45;2.67;;;;;;;14.43;46.39;101937.97;5053055;28;20749;-78
2022/12/25 10:42:23;;;;;;;4.82;2.70;;;;;;;14.48;46.32;101940.16;5053544;28;20376;-78
2022/12/25 10:45:07;;;;;;;6.97;3.40;;;;;;;14.61;46.75;101935.19;5053050;28;20391;-78
2022/12/25 10:47:39;;;;;;;5.50;2.50;;;;;;;14.76;45.93;101932.66;5052477;28;20482;-77
2022/12/25 10:50:19;;;;;;;6.85;3.40;;;;;;;14.90;46.20;101923.97;5052706;28;20438;-78
2022/12/25 10:53:04;;;;;;;9.05;4.50;;;;;;;14.95;46.34;101925.31;5053857;28;20392;-79
2022/12/25 10:55:32;;;;;;;6.38;3.33;;;;;;;14.85;45.87;101928.16;5053720;28;20522;-79
2022/12/25 10:57:58;;;;;;;5.18;2.83;;;;;;;14.83;45.05;101928.31;5054016;28;20411;-78
2022/12/25 11:00:26;;;;;;;6.20;3.40;;;;;;;15.05;44.88;101923.28;5052507;28;20473;-78
2022/12/25 11:02:52;;;;;;;4.45;2.60;;;;;;;15.04;45.02;101921.63;5053624;28;20503;-77
2022/12/25 11:05:25;;;;;;;6.03;3.53;;;;;;;14.99;45.47;101911.44;5053160;28;20408;-77
2022/12/25 11:07:53;;;;;;;6.00;3.22;;;;;;;15.13;44.60;101922.47;5053533;28;20442;-78
2022/12/25 11:10:35;;;;;;;6.83;3.63;;;;;;;15.10;44.99;101921.75;5056619;28;20411;-79
2022/12/25 11:13:01;;;;;;;5.80;3.13;;;;;;;15.17;44.19;101927.28;5054948;28;20514;-78
2022/12/25 11:15:40;;;;;;;5.55;2.85;;;;;;;15.16;44.19;101920.28;5053360;28;20380;-79
2022/12/25 11:18:18;;;;;;;6.20;3.13;;;;;;;15.37;44.55;101916.19;5052420;28;20404;-80
2022/12/25 11:20:52;;;;;;;5.73;3.00;;;;;;;15.22;44.59;101921.44;5052661;28;20764;-77
2022/12/25 11:23:19;;;;;;;8.05;4.90;;;;;;;15.26;44.79;101920.91;5053680;28;20477;-78
2022/12/25 11:25:55;;;;;;;3.95;2.40;;;;;;;15.36;41.62;101917.19;5052264;28;20377;-79
2022/12/25 11:28:21;;;;;;;6.47;3.30;;;;;;;15.49;41.44;101917.50;5052514;28;20483;-78
2022/12/25 11:30:52;;;;;;;4.93;2.72;;;;;;;15.39;39.95;101922.19;5052852;28;20551;-78
2022/12/25 11:33:19;;;;;;;6.40;3.60;;;;;;;15.29;39.23;101920.56;5052728;28;20426;-78
2022/12/25 11:35:51;;;;;;;5.28;2.30;;;;;;;15.43;38.61;101931.53;5051988;28;20377;-77
2022/12/25 11:38:18;;;;;;;4.18;2.10;;;;;;;15.17;38.80;101918.44;5052718;28;20423;-77
2022/12/25 11:40:50;;;;;;;6.40;2.60;;;;;;;15.36;39.14;101920.72;5053130;28;20381;-79
2022/12/25 11:43:32;;;;;;;10.60;5.63;;;;;;;15.46;39.71;101932.03;5052502;28;20377;-77
2022/12/25 11:46:21;;;;;;;4.43;1.85;;;;;;;14.88;38.67;101914.47;5051787;28;20389;-77
2022/12/25 11:48:55;;;;;;;6.38;2.50;;;;;;;15.07;39.08;101914.13;5052114;28;20532;-76
2022/12/25 11:51:24;;;;;;;4.43;2.50;;;;;;;15.42;38.93;101916.53;5053922;28;20776;-78
2022/12/25 11:53:54;;;;;;;4.30;1.83;;;;;;;15.47;38.55;101919.50;5053437;28;20781;-78
2022/12/25 11:56:24;;;;;;;3.60;2.03;;;;;;;15.52;38.38;101909.16;5052254;28;20815;-76
2022/12/25 11:58:55;;;;;;;6.27;2.60;;;;;;;15.59;38.84;101919.94;5052148;28;20548;-77
2022/12/25 12:01:29;;;;;;;6.40;2.27;;;;;;;15.63;39.20;101919.44;5052112;28;20385;-78
2022/12/25 12:03:56;;;;;;;3.30;1.60;;;;;;;15.35;38.52;101907.53;5052772;28;20702;-77
2022/12/25 12:06:34;;;;;;;2.17;1.38;;;;;;;15.47;38.84;101898.13;5050720;28;20461;-79
2022/12/25 12:09:18;;;;;;;3.13;1.50;;;;;;;15.55;37.99;101922.13;5053107;28;20397;-77
2022/12/25 12:11:56;;;;;;;3.30;1.40;;;;;;;15.28;37.56;101907.38;5054059;28;20384;-78
2022/12/25 12:14:42;;;;;;;2.33;1.10;;;;;;;14.82;37.94;101920.47;5052296;28;20377;-78
2022/12/25 12:17:13;;;;;;;3.15;1.70;;;;;;;15.28;38.15;101921.56;5052305;28;20404;-78
2022/12/25 12:19:39;;;;;;;3.83;1.98;;;;;;;15.58;38.07;101915.63;5052236;28;20377;-78
2022/12/25 12:22:04;;;;;;;4.00;2.00;;;;;;;15.52;38.64;101921.66;5051921;28;20861;-77
2022/12/25 12:24:36;;;;;;;3.63;1.80;;;;;;;15.66;38.38;101912.91;5052221;28;20849;-78
2022/12/25 12:27:05;;;;;;;2.15;1.50;;;;;;;15.34;38.33;101909.38;5053137;28;20818;-77
2022/12/25 12:29:39;;;;;;;3.35;1.98;;;;;;;15.44;38.61;101909.16;5052226;28;20461;-78
2022/12/25 12:32:34;;;;;;;2.60;1.45;;;;;;;15.63;38.26;101915.94;5052011;28;20780;-79
2022/12/25 12:35:16;;;;;;;2.25;1.42;;;;;;;15.61;38.48;101909.91;5051400;28;20389;-78
2022/12/25 12:37:45;;;;;;;4.07;2.17;;;;;;;15.69;38.39;101904.53;5051446;28;20420;-77
2022/12/25 12:40:28;;;;;;;3.50;1.98;;;;;;;15.61;37.89;101915.25;5052046;28;20377;-78
2022/12/25 12:42:53;;;;;;;5.20;2.20;;;;;;;15.59;38.08;101918.13;5052180;28;20392;-78
2022/12/25 12:45:25;;;;;;;4.15;2.60;;;;;;;15.86;38.33;101910.66;5051496;28;20377;-77
2022/12/25 12:47:51;;;;;;;3.63;1.98;;;;;;;15.99;38.11;101920.78;5051385;28;20412;-77
2022/12/25 12:50:32;;;;;;;2.10;1.40;;;;;;;15.68;38.71;101933.13;5051183;28;20404;-79
2022/12/25 12:52:59;;;;;;;3.05;1.70;;;;;;;15.96;38.56;101921.97;5051343;28;20395;-78
2022/12/25 12:55:33;;;;;;;4.93;2.80;;;;;;;16.09;38.43;101925.91;5051253;28;20391;-78
2022/12/25 12:58:00;;;;;;;4.32;2.60;;;;;;;15.94;38.46;101924.00;5051345;28;20734;-77
2022/12/25 13:00:35;;;;;;;4.40;2.20;;;;;;;15.75;38.46;101925.25;5051094;28;20384;-77
2022/12/25 13:03:28;;;;;;;5.85;2.65;;;;;;;15.84;38.78;101932.22;5050896;28;20373;-77
2022/12/25 13:06:19;;;;;;;3.88;1.80;;;;;;;15.70;38.51;101934.78;5050867;28;20707;-77
2022/12/25 13:08:59;;;;;;;6.50;3.78;;;;;;;15.89;38.96;101931.72;5051203;28;20895;-76
2022/12/25 13:11:29;;;;;;;7.85;3.85;;;;;;;15.93;38.58;101921.50;5052011;28;20376;-76
2022/12/25 13:13:59;;;;;;;6.72;3.75;;;;;;;15.85;38.75;101925.88;5051724;28;20796;-77
2022/12/25 13:16:27;;;;;;;7.88;4.20;;;;;;;15.86;39.17;101932.06;5051352;28;20467;-78
2022/12/25 13:18:55;;;;;;;7.97;3.90;;;;;;;15.85;39.15;101925.88;5055364;28;20795;-77